Detroit, Michigan
Traffic Map
Current Weather Conditions
Detroit, Michigan
Few Clouds
Few Clouds
50°
Feels Like: 50°
Wind Chill: 50° Ceiling: Unl
Heat Index: 50° Visibility: 15mi
Dew Point: 45° Wind: 10mph
Humidity: 82% Direction: 210° (SSW)
Pressure: 29.73in Gusts: 0mph
Raw Report DataCYQG 040500Z 21009KT 15SM FEW250 10/07 A2973 RMK CI1 SLP070
Traffic Incident Summary
Active as of:
Severity:
Category:
InformationThere was an issue retrieving the traffic information for this location. Please try a different location or try again shortly.
Advertisements
Track Severe Weather on mobile